PWSweather.com
Personal Weather Stations
Station Observations
COONRAPIDS
Minneapolis, MN 55433

Minneapolis, MN 55433

Lat: 45.187721, Lon: -93.36828

Elevation: 898

Station Type: Davis Vantage Pro 2

High Low Average
Temperature 74.4°F23.6°C 58.7°F14.8°C 66.0°F18.9°C
Dew Point 62.1°F16.7°C 55.2°F12.9°C 58.3°F14.6°C
Winds 10.4 mph 16.7 kmh Calm Calm Calm ENECalm ENE
Wind Gusts 24.2 mph38.9 kmh -- --
Humidity 89% 58% 77%
Pressure 30.10 in1019.3 mb 29.74 in1007.1 mb -
Precipitation 1.02 in25.9 mm - -
Hour Temp Dew Point Humidity Winds Wind Gusts Pressure Precip Precip Rate Daily Precip Total
12:00 AM 64.9°F18.3°C 60.3°F15.7°C 85% Calm Calm -- 30.04 in1017.3 mb - 0.00 in0.0 mm 0.00 in0.0 mm
12:10 AM 64.6°F18.1°C 60.0°F15.6°C 85% Calm Calm -- 30.03 in1016.9 mb - 0.00 in0.0 mm 0.00 in0.0 mm
12:20 AM 64.3°F17.9°C 59.7°F15.4°C 85% Calm Calm -- 30.03 in1016.9 mb - 0.00 in0.0 mm 0.00 in0.0 mm
12:30 AM 64.0°F17.8°C 59.7°F15.4°C 86% Calm Calm -- 30.03 in1016.9 mb - 0.00 in0.0 mm 0.00 in0.0 mm
12:40 AM 63.8°F17.7°C 59.5°F15.3°C 86% Calm Calm -- 30.03 in1016.9 mb - 0.00 in0.0 mm 0.00 in0.0 mm
12:50 AM 63.8°F17.7°C 59.5°F15.3°C 86% Calm Calm -- 30.03 in1016.9 mb - 0.00 in0.0 mm 0.00 in0.0 mm
01:00 AM 63.8°F17.7°C 59.6°F15.3°C 86% Calm Calm -- 30.04 in1017.3 mb - 0.00 in0.0 mm 0.00 in0.0 mm
01:10 AM 63.9°F17.7°C 60.0°F15.6°C 87% Calm Calm -- 30.04 in1017.3 mb - 0.00 in0.0 mm 0.00 in0.0 mm
01:20 AM 64.0°F17.8°C 60.0°F15.6°C 87% Calm Calm -- 30.04 in1017.3 mb - 0.00 in0.0 mm 0.00 in0.0 mm
01:30 AM 64.1°F17.8°C 60.1°F15.6°C 87% Calm Calm -- 30.04 in1017.3 mb - 0.00 in0.0 mm 0.00 in0.0 mm
01:40 AM 64.2°F17.9°C 60.2°F15.7°C 87% Calm Calm -- 30.04 in1017.3 mb - 0.00 in0.0 mm 0.00 in0.0 mm
01:50 AM 64.2°F17.9°C 60.3°F15.7°C 87% Calm Calm -- 30.03 in1016.9 mb - 0.00 in0.0 mm 0.00 in0.0 mm
02:00 AM 64.2°F17.9°C 60.2°F15.7°C 87% Calm Calm -- 30.04 in1017.3 mb - 0.00 in0.0 mm 0.00 in0.0 mm
02:10 AM 64.1°F17.8°C 60.2°F15.7°C 87% Calm Calm -- 30.03 in1016.9 mb - 0.00 in0.0 mm 0.00 in0.0 mm
02:20 AM 63.9°F17.7°C 60.0°F15.6°C 87% Calm Calm -- 30.03 in1016.9 mb - 0.00 in0.0 mm 0.00 in0.0 mm
02:30 AM 63.7°F17.6°C 59.7°F15.4°C 87% Calm Calm -- 30.03 in1016.9 mb - 0.00 in0.0 mm 0.00 in0.0 mm
02:40 AM 63.5°F17.5°C 59.6°F15.3°C 87% Calm Calm -- 30.03 in1016.9 mb - 0.00 in0.0 mm 0.00 in0.0 mm
02:50 AM 63.3°F17.4°C 59.4°F15.2°C 87% Calm Calm -- 30.04 in1017.3 mb - 0.00 in0.0 mm 0.00 in0.0 mm
03:00 AM 63.1°F17.3°C 59.2°F15.1°C 87% Calm Calm -- 30.04 in1017.3 mb - 0.00 in0.0 mm 0.00 in0.0 mm
03:10 AM 62.9°F17.2°C 59.0°F15.0°C 87% Calm Calm -- 30.04 in1017.3 mb - 0.00 in0.0 mm 0.00 in0.0 mm
03:20 AM 62.6°F17.0°C 58.7°F14.8°C 87% Calm Calm -- 30.04 in1017.3 mb - 0.00 in0.0 mm 0.00 in0.0 mm
03:30 AM 62.2°F16.8°C 58.3°F14.6°C 87% Calm Calm -- 30.04 in1017.3 mb - 0.00 in0.0 mm 0.00 in0.0 mm
03:40 AM 61.8°F16.6°C 57.9°F14.4°C 87% Calm Calm -- 30.05 in1017.6 mb - 0.00 in0.0 mm 0.00 in0.0 mm
03:50 AM 61.6°F16.4°C 57.7°F14.3°C 87% Calm Calm -- 30.05 in1017.6 mb - 0.00 in0.0 mm 0.00 in0.0 mm
04:00 AM 61.3°F16.3°C 57.4°F14.1°C 87% Calm Calm -- 30.05 in1017.6 mb - 0.00 in0.0 mm 0.00 in0.0 mm
04:10 AM 61.1°F16.2°C 57.2°F14.0°C 87% Calm Calm -- 30.05 in1017.6 mb - 0.00 in0.0 mm 0.00 in0.0 mm
04:20 AM 60.9°F16.1°C 57.0°F13.9°C 87% Calm Calm -- 30.05 in1017.6 mb - 0.00 in0.0 mm 0.00 in0.0 mm
04:30 AM 60.6°F15.9°C 56.7°F13.7°C 87% Calm Calm -- 30.05 in1017.6 mb - 0.00 in0.0 mm 0.00 in0.0 mm
04:40 AM 60.4°F15.8°C 56.5°F13.6°C 87% Calm Calm -- 30.06 in1017.9 mb - 0.00 in0.0 mm 0.00 in0.0 mm
04:50 AM 60.1°F15.6°C 56.6°F13.7°C 88% Calm Calm -- 30.06 in1017.9 mb - 0.00 in0.0 mm 0.00 in0.0 mm
05:00 AM 59.9°F15.5°C 56.3°F13.5°C 88% Calm Calm -- 30.06 in1017.9 mb - 0.00 in0.0 mm 0.00 in0.0 mm
05:10 AM 59.8°F15.4°C 56.2°F13.4°C 88% Calm Calm -- 30.07 in1018.3 mb - 0.00 in0.0 mm 0.00 in0.0 mm
05:20 AM 59.6°F15.3°C 56.0°F13.3°C 88% Calm Calm -- 30.07 in1018.3 mb - 0.00 in0.0 mm 0.00 in0.0 mm
05:30 AM 59.4°F15.2°C 55.8°F13.2°C 88% Calm Calm -- 30.07 in1018.3 mb - 0.00 in0.0 mm 0.00 in0.0 mm
05:40 AM 59.2°F15.1°C 55.6°F13.1°C 88% Calm Calm -- 30.07 in1018.3 mb - 0.00 in0.0 mm 0.00 in0.0 mm
05:50 AM 58.9°F14.9°C 55.4°F13.0°C 88% Calm Calm -- 30.07 in1018.3 mb - 0.00 in0.0 mm 0.00 in0.0 mm
06:00 AM 58.7°F14.8°C 55.2°F12.9°C 88% Calm Calm -- 30.08 in1018.6 mb - 0.00 in0.0 mm 0.00 in0.0 mm
06:10 AM 59.0°F15.0°C 55.4°F13.0°C 88% Calm Calm -- 30.08 in1018.6 mb - 0.00 in0.0 mm 0.00 in0.0 mm
06:20 AM 59.2°F15.1°C 55.9°F13.3°C 89% Calm Calm -- 30.09 in1019.0 mb - 0.00 in0.0 mm 0.00 in0.0 mm
06:30 AM 59.4°F15.2°C 56.2°F13.4°C 89% Calm Calm -- 30.09 in1019.0 mb - 0.00 in0.0 mm 0.00 in0.0 mm
06:40 AM 59.6°F15.3°C 56.4°F13.6°C 89% Calm Calm -- 30.09 in1019.0 mb - 0.00 in0.0 mm 0.00 in0.0 mm
06:50 AM 59.8°F15.4°C 56.6°F13.7°C 89% Calm Calm -- 30.09 in1019.0 mb - 0.00 in0.0 mm 0.00 in0.0 mm
07:00 AM 60.0°F15.6°C 56.7°F13.7°C 89% Calm Calm 1.2 mph1.9 kmh 30.09 in1019.0 mb - 0.00 in0.0 mm 0.00 in0.0 mm
07:10 AM 60.2°F15.7°C 56.9°F13.8°C 89% Calm Calm 2.3 mph3.7 kmh 30.09 in1019.0 mb - 0.00 in0.0 mm 0.00 in0.0 mm
07:20 AM 60.3°F15.7°C 57.0°F13.9°C 89% Calm Calm -- 30.09 in1019.0 mb - 0.00 in0.0 mm 0.00 in0.0 mm
07:30 AM 60.6°F15.9°C 57.0°F13.9°C 88% Calm Calm 3.5 mph5.6 kmh 30.09 in1019.0 mb - 0.00 in0.0 mm 0.00 in0.0 mm
07:40 AM 60.8°F16.0°C 56.9°F13.8°C 87% Calm Calm -- 30.09 in1019.0 mb - 0.00 in0.0 mm 0.00 in0.0 mm
07:50 AM 61.1°F16.2°C 57.2°F14.0°C 87% Calm Calm -- 30.09 in1019.0 mb - 0.00 in0.0 mm 0.00 in0.0 mm
08:00 AM 61.3°F16.3°C 57.1°F13.9°C 86% Calm Calm -- 30.09 in1019.0 mb - 0.00 in0.0 mm 0.00 in0.0 mm
08:10 AM 61.5°F16.4°C 56.9°F13.8°C 85% Calm Calm -- 30.09 in1019.0 mb - 0.00 in0.0 mm 0.00 in0.0 mm
08:20 AM 61.7°F16.5°C 57.1°F13.9°C 85% Calm Calm -- 30.09 in1019.0 mb - 0.00 in0.0 mm 0.00 in0.0 mm
08:30 AM 61.5°F16.4°C 56.6°F13.7°C 84% Calm Calm -- 30.09 in1019.0 mb - 0.00 in0.0 mm 0.00 in0.0 mm
08:40 AM 61.3°F16.3°C 56.5°F13.6°C 84% Calm Calm -- 30.09 in1019.0 mb - 0.00 in0.0 mm 0.00 in0.0 mm
08:50 AM 61.4°F16.3°C 56.5°F13.6°C 84% Calm Calm -- 30.10 in1019.3 mb - 0.00 in0.0 mm 0.00 in0.0 mm
09:00 AM 61.3°F16.3°C 56.4°F13.6°C 84% Calm Calm -- 30.10 in1019.3 mb - 0.00 in0.0 mm 0.00 in0.0 mm
09:10 AM 61.3°F16.3°C 56.4°F13.6°C 84% Calm Calm 1.2 mph1.9 kmh 30.09 in1019.0 mb - 0.00 in0.0 mm 0.00 in0.0 mm
09:20 AM 61.3°F16.3°C 56.4°F13.6°C 84% Calm Calm -- 30.09 in1019.0 mb - 0.00 in0.0 mm 0.00 in0.0 mm
09:30 AM 61.5°F16.4°C 56.6°F13.7°C 84% Calm Calm -- 30.09 in1019.0 mb - 0.00 in0.0 mm 0.00 in0.0 mm
09:40 AM 62.0°F16.7°C 57.1°F13.9°C 84% Calm Calm -- 30.09 in1019.0 mb - 0.00 in0.0 mm 0.00 in0.0 mm
09:50 AM 62.7°F17.1°C 57.1°F13.9°C 82% Calm Calm -- 30.09 in1019.0 mb - 0.00 in0.0 mm 0.00 in0.0 mm
10:00 AM 63.3°F17.4°C 57.0°F13.9°C 80% Calm Calm 1.2 mph1.9 kmh 30.09 in1019.0 mb - 0.00 in0.0 mm 0.00 in0.0 mm
10:10 AM 63.7°F17.6°C 57.1°F13.9°C 79% Calm Calm -- 30.08 in1018.6 mb - 0.00 in0.0 mm 0.00 in0.0 mm
10:20 AM 64.0°F17.8°C 57.4°F14.1°C 79% Calm Calm 1.2 mph1.9 kmh 30.08 in1018.6 mb - 0.00 in0.0 mm 0.00 in0.0 mm
10:30 AM 64.5°F18.1°C 57.5°F14.2°C 78% Calm Calm 3.5 mph5.6 kmh 30.09 in1019.0 mb - 0.00 in0.0 mm 0.00 in0.0 mm
10:40 AM 65.0°F18.3°C 57.6°F14.2°C 77% Calm Calm -- 30.08 in1018.6 mb - 0.00 in0.0 mm 0.00 in0.0 mm
10:50 AM 65.3°F18.5°C 57.2°F14.0°C 75% Calm Calm -- 30.09 in1019.0 mb - 0.00 in0.0 mm 0.00 in0.0 mm
11:00 AM 65.6°F18.7°C 57.5°F14.2°C 75% 2.3 mph NE3.7 kmh NE 3.5 mph5.6 kmh 30.09 in1019.0 mb - 0.00 in0.0 mm 0.00 in0.0 mm
11:10 AM 66.1°F18.9°C 58.3°F14.6°C 76% Calm Calm 1.2 mph1.9 kmh 30.08 in1018.6 mb - 0.00 in0.0 mm 0.00 in0.0 mm
11:20 AM 66.8°F19.3°C 58.2°F14.6°C 74% 2.3 mph NE3.7 kmh NE 3.5 mph5.6 kmh 30.07 in1018.3 mb - 0.00 in0.0 mm 0.00 in0.0 mm
11:30 AM 67.4°F19.7°C 58.5°F14.7°C 73% Calm Calm -- 30.07 in1018.3 mb - 0.00 in0.0 mm 0.00 in0.0 mm
11:40 AM 68.0°F20.0°C 58.3°F14.6°C 71% Calm Calm -- 30.07 in1018.3 mb - 0.00 in0.0 mm 0.00 in0.0 mm
11:50 AM 68.3°F20.2°C 58.9°F14.9°C 72% 1.2 mph NE1.9 kmh NE 2.3 mph3.7 kmh 30.07 in1018.3 mb - 0.00 in0.0 mm 0.00 in0.0 mm
12:00 PM 68.8°F20.4°C 59.0°F15.0°C 71% 1.2 mph NE1.9 kmh NE 3.5 mph5.6 kmh 30.07 in1018.3 mb - 0.00 in0.0 mm 0.00 in0.0 mm
12:10 PM 69.2°F20.7°C 59.0°F15.0°C 70% Calm Calm -- 30.06 in1017.9 mb - 0.00 in0.0 mm 0.00 in0.0 mm
12:20 PM 69.6°F20.9°C 58.6°F14.8°C 68% 1.2 mph NE1.9 kmh NE 1.2 mph1.9 kmh 30.06 in1017.9 mb - 0.00 in0.0 mm 0.00 in0.0 mm
12:30 PM 69.7°F20.9°C 58.3°F14.6°C 67% Calm Calm -- 30.05 in1017.6 mb - 0.00 in0.0 mm 0.00 in0.0 mm
12:40 PM 69.9°F21.1°C 58.9°F14.9°C 68% Calm Calm -- 30.05 in1017.6 mb - 0.00 in0.0 mm 0.00 in0.0 mm
12:50 PM 70.6°F21.4°C 59.1°F15.1°C 67% Calm Calm -- 30.04 in1017.3 mb - 0.00 in0.0 mm 0.00 in0.0 mm
01:00 PM 70.9°F21.6°C 59.0°F15.0°C 66% Calm Calm 4.6 mph7.4 kmh 30.03 in1016.9 mb - 0.00 in0.0 mm 0.00 in0.0 mm
01:10 PM 71.2°F21.8°C 58.8°F14.9°C 65% 1.2 mph NE1.9 kmh NE 2.3 mph3.7 kmh 30.03 in1016.9 mb - 0.00 in0.0 mm 0.00 in0.0 mm
01:20 PM 71.6°F22.0°C 58.3°F14.6°C 63% 2.3 mph NE3.7 kmh NE 3.5 mph5.6 kmh 30.02 in1016.6 mb - 0.00 in0.0 mm 0.00 in0.0 mm
01:30 PM 71.9°F22.2°C 58.6°F14.8°C 63% Calm Calm -- 30.02 in1016.6 mb - 0.00 in0.0 mm 0.00 in0.0 mm
01:40 PM 72.0°F22.2°C 58.7°F14.8°C 63% Calm Calm -- 30.01 in1016.3 mb - 0.00 in0.0 mm 0.00 in0.0 mm
01:50 PM 71.8°F22.1°C 58.5°F14.7°C 63% Calm Calm -- 30.00 in1015.9 mb - 0.00 in0.0 mm 0.00 in0.0 mm
02:00 PM 72.2°F22.3°C 58.0°F14.4°C 61% Calm Calm -- 30.00 in1015.9 mb - 0.00 in0.0 mm 0.00 in0.0 mm
02:10 PM 72.6°F22.6°C 58.4°F14.7°C 61% Calm Calm -- 30.00 in1015.9 mb - 0.00 in0.0 mm 0.00 in0.0 mm
02:20 PM 73.1°F22.8°C 59.3°F15.2°C 62% Calm Calm 3.5 mph5.6 kmh 29.99 in1015.6 mb - 0.00 in0.0 mm 0.00 in0.0 mm
02:30 PM 73.6°F23.1°C 59.3°F15.2°C 61% Calm Calm -- 29.98 in1015.2 mb - 0.00 in0.0 mm 0.00 in0.0 mm
02:40 PM 73.5°F23.1°C 58.3°F14.6°C 59% Calm Calm -- 29.98 in1015.2 mb - 0.00 in0.0 mm 0.00 in0.0 mm
02:50 PM 73.3°F22.9°C 58.5°F14.7°C 60% Calm Calm -- 29.98 in1015.2 mb - 0.00 in0.0 mm 0.00 in0.0 mm
03:00 PM 73.5°F23.1°C 58.7°F14.8°C 60% Calm Calm -- 29.98 in1015.2 mb - 0.00 in0.0 mm 0.00 in0.0 mm
03:10 PM 74.0°F23.3°C 59.2°F15.1°C 60% Calm Calm -- 29.98 in1015.2 mb - 0.00 in0.0 mm 0.00 in0.0 mm
03:20 PM 74.1°F23.4°C 58.9°F14.9°C 59% Calm Calm -- 29.97 in1014.9 mb - 0.00 in0.0 mm 0.00 in0.0 mm
03:30 PM 74.3°F23.5°C 58.6°F14.8°C 58% Calm Calm -- 29.96 in1014.6 mb - 0.00 in0.0 mm 0.00 in0.0 mm
03:40 PM 74.4°F23.6°C 58.7°F14.8°C 58% Calm Calm -- 29.96 in1014.6 mb - 0.00 in0.0 mm 0.00 in0.0 mm
03:50 PM 74.0°F23.3°C 58.3°F14.6°C 58% Calm Calm -- 29.96 in1014.6 mb - 0.00 in0.0 mm 0.00 in0.0 mm
04:00 PM 73.6°F23.1°C 58.4°F14.7°C 59% Calm Calm -- 29.96 in1014.6 mb - 0.00 in0.0 mm 0.00 in0.0 mm
04:10 PM 73.4°F23.0°C 58.7°F14.8°C 60% Calm Calm -- 29.95 in1014.2 mb - 0.00 in0.0 mm 0.00 in0.0 mm
04:20 PM 73.3°F22.9°C 58.1°F14.5°C 59% Calm Calm -- 29.94 in1013.9 mb - 0.00 in0.0 mm 0.00 in0.0 mm
04:30 PM 73.2°F22.9°C 58.5°F14.7°C 60% Calm Calm -- 29.95 in1014.2 mb - 0.00 in0.0 mm 0.00 in0.0 mm
04:40 PM 73.3°F22.9°C 58.1°F14.5°C 59% Calm Calm -- 29.93 in1013.5 mb - 0.00 in0.0 mm 0.00 in0.0 mm
04:50 PM 73.1°F22.8°C 58.0°F14.4°C 59% Calm Calm -- 29.91 in1012.9 mb - 0.00 in0.0 mm 0.00 in0.0 mm
05:00 PM 73.3°F22.9°C 58.6°F14.8°C 60% Calm Calm -- 29.92 in1013.2 mb - 0.00 in0.0 mm 0.00 in0.0 mm
05:10 PM 73.4°F23.0°C 59.1°F15.1°C 61% Calm Calm -- 29.91 in1012.9 mb - 0.00 in0.0 mm 0.00 in0.0 mm
05:20 PM 73.1°F22.8°C 58.8°F14.9°C 61% Calm Calm -- 29.91 in1012.9 mb - 0.00 in0.0 mm 0.00 in0.0 mm
05:30 PM 72.8°F22.7°C 59.5°F15.3°C 63% Calm Calm 1.2 mph1.9 kmh 29.90 in1012.5 mb - 0.00 in0.0 mm 0.00 in0.0 mm
05:40 PM 72.3°F22.4°C 59.0°F15.0°C 63% Calm Calm -- 29.90 in1012.5 mb - 0.00 in0.0 mm 0.00 in0.0 mm
05:50 PM 72.2°F22.3°C 59.3°F15.2°C 64% Calm Calm -- 29.88 in1011.9 mb - 0.00 in0.0 mm 0.00 in0.0 mm
06:00 PM 72.0°F22.2°C 59.6°F15.3°C 65% Calm Calm -- 29.87 in1011.5 mb - 0.00 in0.0 mm 0.00 in0.0 mm
06:10 PM 71.8°F22.1°C 59.8°F15.4°C 66% Calm Calm -- 29.87 in1011.5 mb - 0.00 in0.0 mm 0.00 in0.0 mm
06:20 PM 71.6°F22.0°C 59.6°F15.3°C 66% Calm Calm -- 29.87 in1011.5 mb - 0.00 in0.0 mm 0.00 in0.0 mm
06:30 PM 71.5°F21.9°C 60.0°F15.6°C 67% Calm Calm -- 29.86 in1011.2 mb - 0.00 in0.0 mm 0.00 in0.0 mm
06:40 PM 71.4°F21.9°C 59.9°F15.5°C 67% Calm Calm -- 29.85 in1010.8 mb - 0.00 in0.0 mm 0.00 in0.0 mm
06:50 PM 71.3°F21.8°C 60.2°F15.7°C 68% Calm Calm -- 29.86 in1011.2 mb - 0.00 in0.0 mm 0.00 in0.0 mm
07:10 PM 71.0°F21.7°C 60.3°F15.7°C 69% Calm Calm -- 29.83 in1010.2 mb - 0.00 in0.0 mm 0.00 in0.0 mm
07:20 PM 70.8°F21.6°C 60.5°F15.8°C 70% Calm Calm -- 29.82 in1009.8 mb - 0.00 in0.0 mm 0.00 in0.0 mm
07:30 PM 70.7°F21.5°C 60.5°F15.8°C 70% Calm Calm -- 29.81 in1009.5 mb - 0.00 in0.0 mm 0.00 in0.0 mm
07:40 PM 70.8°F21.6°C 60.5°F15.8°C 70% Calm Calm -- 29.80 in1009.1 mb - 0.00 in0.0 mm 0.00 in0.0 mm
07:50 PM 70.9°F21.6°C 60.6°F15.9°C 70% Calm Calm -- 29.80 in1009.1 mb - 0.00 in0.0 mm 0.00 in0.0 mm
08:00 PM 71.0°F21.7°C 61.1°F16.2°C 71% Calm Calm -- 29.79 in1008.8 mb - 0.00 in0.0 mm 0.00 in0.0 mm
08:10 PM 70.9°F21.6°C 61.1°F16.2°C 71% Calm Calm -- 29.79 in1008.8 mb - 0.00 in0.0 mm 0.00 in0.0 mm
08:20 PM 70.9°F21.6°C 61.0°F16.1°C 71% Calm Calm -- 29.77 in1008.1 mb - 0.00 in0.0 mm 0.00 in0.0 mm
08:30 PM 71.0°F21.7°C 61.5°F16.4°C 72% Calm Calm -- 29.77 in1008.1 mb - 0.00 in0.0 mm 0.00 in0.0 mm
08:40 PM 71.1°F21.7°C 61.6°F16.4°C 72% Calm Calm -- 29.77 in1008.1 mb - 0.00 in0.0 mm 0.00 in0.0 mm
08:50 PM 71.1°F21.7°C 62.0°F16.7°C 73% Calm Calm -- 29.78 in1008.5 mb - 0.00 in0.0 mm 0.00 in0.0 mm
09:00 PM 71.1°F21.7°C 62.0°F16.7°C 73% Calm Calm -- 29.78 in1008.5 mb - 0.00 in0.0 mm 0.00 in0.0 mm
09:10 PM 70.8°F21.6°C 62.1°F16.7°C 74% 10.4 mph W16.7 kmh W 24.2 mph38.9 kmh 29.92 in1013.2 mb - 0.08 in2.0 mm 0.08 in2.0 mm
09:20 PM 64.2°F17.9°C 58.2°F14.6°C 81% Calm Calm -- 29.89 in1012.2 mb - 0.71 in18.0 mm 0.71 in18.0 mm
09:30 PM 62.3°F16.8°C 57.4°F14.1°C 84% Calm Calm -- 29.85 in1010.8 mb - 0.92 in23.4 mm 0.92 in23.4 mm
09:40 PM 61.4°F16.3°C 57.2°F14.0°C 86% 1.2 mph NE1.9 kmh NE 1.2 mph1.9 kmh 29.74 in1007.1 mb - 1.02 in25.9 mm 1.02 in25.9 mm
09:50 PM 61.3°F16.3°C 57.4°F14.1°C 87% Calm Calm -- 29.83 in1010.2 mb - 1.02 in25.9 mm 1.02 in25.9 mm
10:00 PM 61.2°F16.2°C 57.3°F14.1°C 87% Calm Calm -- 29.83 in1010.2 mb - 1.02 in25.9 mm 1.02 in25.9 mm
10:10 PM 61.1°F16.2°C 57.5°F14.2°C 88% Calm Calm -- 29.83 in1010.2 mb - 1.00 in25.4 mm 1.02 in25.9 mm
10:20 PM 61.1°F16.2°C 57.5°F14.2°C 88% Calm Calm -- 29.82 in1009.8 mb - 0.34 in8.6 mm 1.02 in25.9 mm
10:30 PM 61.2°F16.2°C 57.6°F14.2°C 88% Calm Calm -- 29.82 in1009.8 mb - 0.11 in2.8 mm 1.02 in25.9 mm
10:40 PM 61.2°F16.2°C 57.6°F14.2°C 88% Calm Calm -- 29.81 in1009.5 mb - 0.00 in0.0 mm 1.02 in25.9 mm
10:50 PM 61.1°F16.2°C 57.8°F14.3°C 89% Calm Calm -- 29.80 in1009.1 mb - 0.00 in0.0 mm 1.02 in25.9 mm
11:00 PM 60.9°F16.1°C 57.4°F14.1°C 88% Calm Calm -- 29.79 in1008.8 mb - 0.00 in0.0 mm 6.22 in158.0 mm
11:10 PM 60.7°F15.9°C 57.5°F14.2°C 89% Calm Calm -- 29.78 in1008.5 mb - 0.00 in0.0 mm 6.22 in158.0 mm
11:20 PM 60.7°F15.9°C 57.4°F14.1°C 89% Calm Calm -- 29.77 in1008.1 mb - 0.00 in0.0 mm 6.22 in158.0 mm
11:30 PM 60.7°F15.9°C 57.4°F14.1°C 89% Calm Calm -- 29.77 in1008.1 mb - 0.00 in0.0 mm 6.22 in158.0 mm
11:40 PM 60.6°F15.9°C 57.3°F14.1°C 89% Calm Calm -- 29.77 in1008.1 mb - 0.00 in0.0 mm 6.22 in158.0 mm
11:50 PM 60.6°F15.9°C 57.3°F14.1°C 89% Calm Calm -- 29.76 in1007.8 mb - 0.00 in0.0 mm 6.22 in158.0 mm